sensor_id;sensor_type;location;lat;lon;timestamp;P1;durP1;ratioP1;P2;durP2;ratioP2
4486;SDS011;2256;48.740;9.106;2023-08-12T00:01:16;6.53;;;4.70;;
4486;SDS011;2256;48.740;9.106;2023-08-12T00:03:46;8.30;;;5.20;;
4486;SDS011;2256;48.740;9.106;2023-08-12T00:06:12;9.07;;;4.60;;
4486;SDS011;2256;48.740;9.106;2023-08-12T00:08:39;7.90;;;5.40;;
4486;SDS011;2256;48.740;9.106;2023-08-12T00:11:06;8.47;;;4.23;;
4486;SDS011;2256;48.740;9.106;2023-08-12T00:13:33;6.87;;;5.23;;
4486;SDS011;2256;48.740;9.106;2023-08-12T00:16:01;6.73;;;4.83;;
4486;SDS011;2256;48.740;9.106;2023-08-12T00:18:27;8.03;;;4.37;;
4486;SDS011;2256;48.740;9.106;2023-08-12T00:20:54;6.10;;;4.80;;
4486;SDS011;2256;48.740;9.106;2023-08-12T00:23:22;6.67;;;4.90;;
4486;SDS011;2256;48.740;9.106;2023-08-12T00:25:49;5.93;;;4.23;;
4486;SDS011;2256;48.740;9.106;2023-08-12T00:28:19;6.90;;;4.47;;
4486;SDS011;2256;48.740;9.106;2023-08-12T00:30:47;5.90;;;4.57;;
4486;SDS011;2256;48.740;9.106;2023-08-12T00:33:16;5.20;;;4.03;;
4486;SDS011;2256;48.740;9.106;2023-08-12T00:35:43;6.97;;;4.40;;
4486;SDS011;2256;48.740;9.106;2023-08-12T00:38:10;7.77;;;5.10;;
4486;SDS011;2256;48.740;9.106;2023-08-12T00:40:37;8.60;;;4.30;;
4486;SDS011;2256;48.740;9.106;2023-08-12T00:43:04;6.20;;;4.60;;
4486;SDS011;2256;48.740;9.106;2023-08-12T00:45:31;10.53;;;4.47;;
4486;SDS011;2256;48.740;9.106;2023-08-12T00:47:58;9.83;;;5.00;;
4486;SDS011;2256;48.740;9.106;2023-08-12T00:50:26;8.77;;;5.07;;
4486;SDS011;2256;48.740;9.106;2023-08-12T00:52:54;8.90;;;5.13;;
4486;SDS011;2256;48.740;9.106;2023-08-12T00:55:21;7.10;;;5.00;;
4486;SDS011;2256;48.740;9.106;2023-08-12T00:57:48;6.40;;;4.93;;
4486;SDS011;2256;48.740;9.106;2023-08-12T01:00:15;7.77;;;4.83;;
4486;SDS011;2256;48.740;9.106;2023-08-12T01:02:42;15.53;;;5.63;;
4486;SDS011;2256;48.740;9.106;2023-08-12T01:05:13;7.97;;;4.57;;
4486;SDS011;2256;48.740;9.106;2023-08-12T01:07:42;6.00;;;4.57;;
4486;SDS011;2256;48.740;9.106;2023-08-12T01:10:10;8.10;;;5.03;;
4486;SDS011;2256;48.740;9.106;2023-08-12T01:12:40;8.03;;;5.53;;
4486;SDS011;2256;48.740;9.106;2023-08-12T01:15:13;9.03;;;4.83;;
4486;SDS011;2256;48.740;9.106;2023-08-12T01:17:42;8.70;;;4.60;;
4486;SDS011;2256;48.740;9.106;2023-08-12T01:20:10;8.27;;;5.13;;
4486;SDS011;2256;48.740;9.106;2023-08-12T01:22:40;6.90;;;5.13;;
4486;SDS011;2256;48.740;9.106;2023-08-12T01:25:11;6.27;;;4.73;;
4486;SDS011;2256;48.740;9.106;2023-08-12T01:27:38;9.40;;;5.20;;
4486;SDS011;2256;48.740;9.106;2023-08-12T01:30:05;6.30;;;4.50;;
4486;SDS011;2256;48.740;9.106;2023-08-12T01:32:36;6.73;;;4.97;;
4486;SDS011;2256;48.740;9.106;2023-08-12T01:35:09;7.70;;;4.70;;
4486;SDS011;2256;48.740;9.106;2023-08-12T01:37:43;5.60;;;4.43;;
4486;SDS011;2256;48.740;9.106;2023-08-12T01:40:13;6.70;;;5.07;;
4486;SDS011;2256;48.740;9.106;2023-08-12T01:42:41;10.33;;;4.37;;
4486;SDS011;2256;48.740;9.106;2023-08-12T01:45:08;6.20;;;4.87;;
4486;SDS011;2256;48.740;9.106;2023-08-12T01:47:35;6.37;;;4.60;;
4486;SDS011;2256;48.740;9.106;2023-08-12T01:50:03;13.90;;;5.30;;
4486;SDS011;2256;48.740;9.106;2023-08-12T01:52:31;6.93;;;4.60;;
4486;SDS011;2256;48.740;9.106;2023-08-12T01:54:58;7.57;;;4.87;;
4486;SDS011;2256;48.740;9.106;2023-08-12T01:57:26;7.80;;;4.93;;
4486;SDS011;2256;48.740;9.106;2023-08-12T01:59:53;7.90;;;4.90;;
4486;SDS011;2256;48.740;9.106;2023-08-12T02:02:19;6.43;;;4.60;;
4486;SDS011;2256;48.740;9.106;2023-08-12T02:04:46;9.03;;;4.87;;
4486;SDS011;2256;48.740;9.106;2023-08-12T02:07:13;8.50;;;5.17;;
4486;SDS011;2256;48.740;9.106;2023-08-12T02:09:39;9.13;;;5.07;;
4486;SDS011;2256;48.740;9.106;2023-08-12T02:12:06;8.50;;;4.67;;
4486;SDS011;2256;48.740;9.106;2023-08-12T02:14:34;8.07;;;4.70;;
4486;SDS011;2256;48.740;9.106;2023-08-12T02:17:01;8.07;;;4.80;;
4486;SDS011;2256;48.740;9.106;2023-08-12T02:19:30;6.77;;;4.70;;
4486;SDS011;2256;48.740;9.106;2023-08-12T02:21:57;8.50;;;5.47;;
4486;SDS011;2256;48.740;9.106;2023-08-12T02:24:24;7.23;;;4.80;;
4486;SDS011;2256;48.740;9.106;2023-08-12T02:26:51;5.97;;;4.57;;
4486;SDS011;2256;48.740;9.106;2023-08-12T02:29:17;5.63;;;4.40;;
4486;SDS011;2256;48.740;9.106;2023-08-12T02:31:46;8.80;;;4.43;;
4486;SDS011;2256;48.740;9.106;2023-08-12T02:34:12;6.63;;;4.37;;
4486;SDS011;2256;48.740;9.106;2023-08-12T02:36:39;7.17;;;4.53;;
4486;SDS011;2256;48.740;9.106;2023-08-12T02:39:06;9.57;;;4.60;;
4486;SDS011;2256;48.740;9.106;2023-08-12T02:41:32;9.40;;;4.50;;
4486;SDS011;2256;48.740;9.106;2023-08-12T02:43:59;7.20;;;4.63;;
4486;SDS011;2256;48.740;9.106;2023-08-12T02:46:26;6.40;;;4.80;;
4486;SDS011;2256;48.740;9.106;2023-08-12T02:48:54;8.90;;;4.67;;
4486;SDS011;2256;48.740;9.106;2023-08-12T02:51:21;6.47;;;4.83;;
4486;SDS011;2256;48.740;9.106;2023-08-12T02:53:47;7.87;;;4.83;;
4486;SDS011;2256;48.740;9.106;2023-08-12T02:56:14;6.03;;;4.67;;
4486;SDS011;2256;48.740;9.106;2023-08-12T02:58:41;15.93;;;4.97;;
4486;SDS011;2256;48.740;9.106;2023-08-12T03:01:07;8.20;;;5.17;;
4486;SDS011;2256;48.740;9.106;2023-08-12T03:03:34;8.40;;;4.30;;
4486;SDS011;2256;48.740;9.106;2023-08-12T03:06:02;13.70;;;5.10;;
4486;SDS011;2256;48.740;9.106;2023-08-12T03:08:30;7.50;;;4.80;;
4486;SDS011;2256;48.740;9.106;2023-08-12T03:10:59;8.30;;;5.20;;
4486;SDS011;2256;48.740;9.106;2023-08-12T03:13:27;7.90;;;5.37;;
4486;SDS011;2256;48.740;9.106;2023-08-12T03:15:54;5.50;;;4.30;;
4486;SDS011;2256;48.740;9.106;2023-08-12T03:18:21;7.10;;;4.43;;
4486;SDS011;2256;48.740;9.106;2023-08-12T03:20:48;8.70;;;4.37;;
4486;SDS011;2256;48.740;9.106;2023-08-12T03:23:16;10.57;;;5.00;;
4486;SDS011;2256;48.740;9.106;2023-08-12T03:25:43;8.83;;;4.40;;
4486;SDS011;2256;48.740;9.106;2023-08-12T03:28:10;5.53;;;4.50;;
4486;SDS011;2256;48.740;9.106;2023-08-12T03:30:36;8.47;;;4.80;;
4486;SDS011;2256;48.740;9.106;2023-08-12T03:33:03;8.90;;;5.33;;
4486;SDS011;2256;48.740;9.106;2023-08-12T03:35:30;6.20;;;4.40;;
4486;SDS011;2256;48.740;9.106;2023-08-12T03:37:57;8.07;;;5.00;;
4486;SDS011;2256;48.740;9.106;2023-08-12T03:40:25;8.17;;;4.53;;
4486;SDS011;2256;48.740;9.106;2023-08-12T03:42:52;7.90;;;4.27;;
4486;SDS011;2256;48.740;9.106;2023-08-12T03:45:18;8.17;;;5.03;;
4486;SDS011;2256;48.740;9.106;2023-08-12T03:47:45;7.57;;;5.33;;
4486;SDS011;2256;48.740;9.106;2023-08-12T03:50:12;5.30;;;4.60;;
4486;SDS011;2256;48.740;9.106;2023-08-12T03:52:38;6.43;;;5.10;;
4486;SDS011;2256;48.740;9.106;2023-08-12T03:55:06;8.00;;;5.30;;
4486;SDS011;2256;48.740;9.106;2023-08-12T03:57:34;6.73;;;4.90;;
4486;SDS011;2256;48.740;9.106;2023-08-12T04:00:01;5.70;;;4.50;;
4486;SDS011;2256;48.740;9.106;2023-08-12T04:02:29;6.30;;;4.63;;
4486;SDS011;2256;48.740;9.106;2023-08-12T04:04:56;6.57;;;4.13;;
4486;SDS011;2256;48.740;9.106;2023-08-12T04:07:22;9.90;;;5.23;;
4486;SDS011;2256;48.740;9.106;2023-08-12T04:09:49;6.50;;;4.10;;
4486;SDS011;2256;48.740;9.106;2023-08-12T04:12:16;6.83;;;4.40;;
4486;SDS011;2256;48.740;9.106;2023-08-12T04:14:44;10.20;;;5.30;;
4486;SDS011;2256;48.740;9.106;2023-08-12T04:17:10;6.87;;;4.87;;
4486;SDS011;2256;48.740;9.106;2023-08-12T04:19:37;7.60;;;5.07;;
4486;SDS011;2256;48.740;9.106;2023-08-12T04:22:04;8.13;;;3.80;;
4486;SDS011;2256;48.740;9.106;2023-08-12T04:24:31;7.70;;;4.50;;
4486;SDS011;2256;48.740;9.106;2023-08-12T04:26:57;5.40;;;4.70;;
4486;SDS011;2256;48.740;9.106;2023-08-12T04:29:24;6.47;;;4.57;;
4486;SDS011;2256;48.740;9.106;2023-08-12T04:31:52;8.10;;;4.77;;
4486;SDS011;2256;48.740;9.106;2023-08-12T04:34:19;6.17;;;4.43;;
4486;SDS011;2256;48.740;9.106;2023-08-12T04:36:46;5.90;;;4.47;;
4486;SDS011;2256;48.740;9.106;2023-08-12T04:39:12;6.57;;;4.90;;
4486;SDS011;2256;48.740;9.106;2023-08-12T04:41:39;5.73;;;4.30;;
4486;SDS011;2256;48.740;9.106;2023-08-12T04:44:06;5.20;;;4.23;;
4486;SDS011;2256;48.740;9.106;2023-08-12T04:46:33;5.60;;;4.17;;
4486;SDS011;2256;48.740;9.106;2023-08-12T04:49:01;7.20;;;5.23;;
4486;SDS011;2256;48.740;9.106;2023-08-12T04:51:27;7.40;;;5.30;;
4486;SDS011;2256;48.740;9.106;2023-08-12T04:53:54;6.83;;;4.73;;
4486;SDS011;2256;48.740;9.106;2023-08-12T04:56:21;7.30;;;4.93;;
4486;SDS011;2256;48.740;9.106;2023-08-12T04:58:49;8.50;;;5.27;;
4486;SDS011;2256;48.740;9.106;2023-08-12T05:01:16;6.33;;;4.93;;
4486;SDS011;2256;48.740;9.106;2023-08-12T05:03:42;9.20;;;5.40;;
4486;SDS011;2256;48.740;9.106;2023-08-12T05:06:10;8.53;;;5.33;;
4486;SDS011;2256;48.740;9.106;2023-08-12T05:08:37;9.07;;;5.17;;
4486;SDS011;2256;48.740;9.106;2023-08-12T05:11:04;9.13;;;4.73;;
4486;SDS011;2256;48.740;9.106;2023-08-12T05:13:31;7.07;;;5.17;;
4486;SDS011;2256;48.740;9.106;2023-08-12T05:15:57;8.40;;;5.23;;
4486;SDS011;2256;48.740;9.106;2023-08-12T05:18:24;8.97;;;5.63;;
4486;SDS011;2256;48.740;9.106;2023-08-12T05:20:51;6.70;;;4.60;;
4486;SDS011;2256;48.740;9.106;2023-08-12T05:23:20;9.03;;;5.60;;
4486;SDS011;2256;48.740;9.106;2023-08-12T05:25:47;8.43;;;5.37;;
4486;SDS011;2256;48.740;9.106;2023-08-12T05:28:14;9.93;;;5.83;;
4486;SDS011;2256;48.740;9.106;2023-08-12T05:30:40;11.90;;;5.03;;
4486;SDS011;2256;48.740;9.106;2023-08-12T05:33:07;8.67;;;5.07;;
4486;SDS011;2256;48.740;9.106;2023-08-12T05:35:34;9.00;;;5.30;;
4486;SDS011;2256;48.740;9.106;2023-08-12T05:38:01;13.87;;;5.67;;
4486;SDS011;2256;48.740;9.106;2023-08-12T05:40:30;7.10;;;4.90;;
4486;SDS011;2256;48.740;9.106;2023-08-12T05:42:56;10.30;;;5.97;;
4486;SDS011;2256;48.740;9.106;2023-08-12T05:45:23;7.93;;;5.23;;
4486;SDS011;2256;48.740;9.106;2023-08-12T05:47:50;7.20;;;4.97;;
4486;SDS011;2256;48.740;9.106;2023-08-12T05:50:17;12.43;;;5.73;;
4486;SDS011;2256;48.740;9.106;2023-08-12T05:52:44;8.37;;;5.10;;
4486;SDS011;2256;48.740;9.106;2023-08-12T05:55:11;5.63;;;4.80;;
4486;SDS011;2256;48.740;9.106;2023-08-12T05:57:39;7.73;;;5.13;;
4486;SDS011;2256;48.740;9.106;2023-08-12T06:00:06;9.80;;;5.70;;
4486;SDS011;2256;48.740;9.106;2023-08-12T06:02:33;9.30;;;4.93;;
4486;SDS011;2256;48.740;9.106;2023-08-12T06:05:01;10.70;;;5.43;;
4486;SDS011;2256;48.740;9.106;2023-08-12T06:07:28;7.63;;;4.77;;
4486;SDS011;2256;48.740;9.106;2023-08-12T06:09:55;9.33;;;5.20;;
4486;SDS011;2256;48.740;9.106;2023-08-12T06:12:22;6.43;;;4.67;;
4486;SDS011;2256;48.740;9.106;2023-08-12T06:14:50;6.67;;;4.80;;
4486;SDS011;2256;48.740;9.106;2023-08-12T06:17:16;7.27;;;5.07;;
4486;SDS011;2256;48.740;9.106;2023-08-12T06:19:43;9.27;;;4.97;;
4486;SDS011;2256;48.740;9.106;2023-08-12T06:22:10;9.37;;;5.50;;
4486;SDS011;2256;48.740;9.106;2023-08-12T06:24:37;6.00;;;5.13;;
4486;SDS011;2256;48.740;9.106;2023-08-12T06:27:03;8.77;;;5.80;;
4486;SDS011;2256;48.740;9.106;2023-08-12T06:29:31;11.93;;;5.87;;
4486;SDS011;2256;48.740;9.106;2023-08-12T06:31:59;10.00;;;5.63;;
4486;SDS011;2256;48.740;9.106;2023-08-12T06:34:25;6.70;;;4.90;;
4486;SDS011;2256;48.740;9.106;2023-08-12T06:36:52;8.03;;;4.70;;
4486;SDS011;2256;48.740;9.106;2023-08-12T06:39:19;7.90;;;5.20;;
4486;SDS011;2256;48.740;9.106;2023-08-12T06:41:45;8.10;;;5.37;;
4486;SDS011;2256;48.740;9.106;2023-08-12T06:44:12;7.30;;;4.97;;
4486;SDS011;2256;48.740;9.106;2023-08-12T06:46:39;7.70;;;4.57;;
4486;SDS011;2256;48.740;9.106;2023-08-12T06:49:07;5.20;;;4.03;;
4486;SDS011;2256;48.740;9.106;2023-08-12T06:51:34;6.83;;;4.13;;
4486;SDS011;2256;48.740;9.106;2023-08-12T06:54:00;5.47;;;3.80;;
4486;SDS011;2256;48.740;9.106;2023-08-12T06:56:27;6.83;;;4.37;;
4486;SDS011;2256;48.740;9.106;2023-08-12T06:58:54;6.07;;;4.27;;
4486;SDS011;2256;48.740;9.106;2023-08-12T07:01:21;6.50;;;4.30;;
4486;SDS011;2256;48.740;9.106;2023-08-12T07:03:47;4.30;;;3.77;;
4486;SDS011;2256;48.740;9.106;2023-08-12T07:06:15;5.20;;;4.40;;
4486;SDS011;2256;48.740;9.106;2023-08-12T07:08:42;8.50;;;4.77;;
4486;SDS011;2256;48.740;9.106;2023-08-12T07:11:09;4.53;;;4.13;;
4486;SDS011;2256;48.740;9.106;2023-08-12T07:13:35;6.57;;;4.50;;
4486;SDS011;2256;48.740;9.106;2023-08-12T07:16:02;5.20;;;4.33;;
4486;SDS011;2256;48.740;9.106;2023-08-12T07:18:29;5.37;;;3.90;;
4486;SDS011;2256;48.740;9.106;2023-08-12T07:20:56;5.40;;;3.90;;
4486;SDS011;2256;48.740;9.106;2023-08-12T07:23:26;4.00;;;3.60;;
4486;SDS011;2256;48.740;9.106;2023-08-12T07:25:52;4.17;;;3.77;;
4486;SDS011;2256;48.740;9.106;2023-08-12T07:28:19;5.63;;;4.37;;
4486;SDS011;2256;48.740;9.106;2023-08-12T07:30:47;5.13;;;4.30;;
4486;SDS011;2256;48.740;9.106;2023-08-12T07:33:14;6.60;;;4.10;;
4486;SDS011;2256;48.740;9.106;2023-08-12T07:35:41;4.60;;;3.93;;
4486;SDS011;2256;48.740;9.106;2023-08-12T07:38:07;10.37;;;4.00;;
4486;SDS011;2256;48.740;9.106;2023-08-12T07:40:35;4.20;;;3.60;;
4486;SDS011;2256;48.740;9.106;2023-08-12T07:43:02;4.23;;;3.83;;
4486;SDS011;2256;48.740;9.106;2023-08-12T07:45:30;4.57;;;4.17;;
4486;SDS011;2256;48.740;9.106;2023-08-12T07:47:57;7.50;;;3.97;;
4486;SDS011;2256;48.740;9.106;2023-08-12T07:50:23;4.00;;;3.60;;
4486;SDS011;2256;48.740;9.106;2023-08-12T07:52:50;5.13;;;4.10;;
4486;SDS011;2256;48.740;9.106;2023-08-12T07:55:17;4.00;;;3.60;;
4486;SDS011;2256;48.740;9.106;2023-08-12T07:57:46;5.30;;;3.60;;
4486;SDS011;2256;48.740;9.106;2023-08-12T08:00:12;5.27;;;3.87;;
4486;SDS011;2256;48.740;9.106;2023-08-12T08:02:39;8.23;;;3.80;;
4486;SDS011;2256;48.740;9.106;2023-08-12T08:05:07;3.40;;;3.10;;
4486;SDS011;2256;48.740;9.106;2023-08-12T08:07:34;4.90;;;3.97;;
4486;SDS011;2256;48.740;9.106;2023-08-12T08:10:00;3.83;;;3.53;;
4486;SDS011;2256;48.740;9.106;2023-08-12T08:12:28;3.63;;;3.10;;
4486;SDS011;2256;48.740;9.106;2023-08-12T08:14:56;4.77;;;3.80;;
4486;SDS011;2256;48.740;9.106;2023-08-12T08:17:22;4.40;;;3.93;;
4486;SDS011;2256;48.740;9.106;2023-08-12T08:19:49;4.17;;;3.63;;
4486;SDS011;2256;48.740;9.106;2023-08-12T08:22:16;4.00;;;3.67;;
4486;SDS011;2256;48.740;9.106;2023-08-12T08:24:43;5.93;;;3.77;;
4486;SDS011;2256;48.740;9.106;2023-08-12T08:27:09;3.40;;;3.10;;
4486;SDS011;2256;48.740;9.106;2023-08-12T08:29:36;4.33;;;3.93;;
4486;SDS011;2256;48.740;9.106;2023-08-12T08:32:04;4.67;;;4.20;;
4486;SDS011;2256;48.740;9.106;2023-08-12T08:34:32;5.40;;;3.90;;
4486;SDS011;2256;48.740;9.106;2023-08-12T08:36:58;5.50;;;3.97;;
4486;SDS011;2256;48.740;9.106;2023-08-12T08:39:25;3.43;;;3.13;;
4486;SDS011;2256;48.740;9.106;2023-08-12T08:41:52;4.37;;;3.97;;
4486;SDS011;2256;48.740;9.106;2023-08-12T08:44:21;3.73;;;2.93;;
4486;SDS011;2256;48.740;9.106;2023-08-12T08:46:49;3.77;;;3.27;;
4486;SDS011;2256;48.740;9.106;2023-08-12T08:49:19;3.43;;;3.03;;
4486;SDS011;2256;48.740;9.106;2023-08-12T08:51:46;2.67;;;2.47;;
4486;SDS011;2256;48.740;9.106;2023-08-12T08:54:13;2.77;;;2.57;;
4486;SDS011;2256;48.740;9.106;2023-08-12T08:56:41;3.23;;;2.93;;
4486;SDS011;2256;48.740;9.106;2023-08-12T08:59:08;2.83;;;2.63;;
4486;SDS011;2256;48.740;9.106;2023-08-12T09:01:35;2.93;;;2.60;;
4486;SDS011;2256;48.740;9.106;2023-08-12T09:04:04;2.90;;;2.70;;
4486;SDS011;2256;48.740;9.106;2023-08-12T09:06:33;2.70;;;2.33;;
4486;SDS011;2256;48.740;9.106;2023-08-12T09:09:03;2.10;;;1.90;;
4486;SDS011;2256;48.740;9.106;2023-08-12T09:11:31;2.57;;;2.37;;
4486;SDS011;2256;48.740;9.106;2023-08-12T09:14:00;2.57;;;2.37;;
4486;SDS011;2256;48.740;9.106;2023-08-12T09:16:27;2.27;;;2.07;;
4486;SDS011;2256;48.740;9.106;2023-08-12T09:18:54;2.90;;;2.30;;
4486;SDS011;2256;48.740;9.106;2023-08-12T09:21:21;3.20;;;2.90;;
4486;SDS011;2256;48.740;9.106;2023-08-12T09:23:50;2.70;;;2.50;;
4486;SDS011;2256;48.740;9.106;2023-08-12T09:26:17;2.40;;;2.20;;
4486;SDS011;2256;48.740;9.106;2023-08-12T09:28:45;3.63;;;2.50;;
4486;SDS011;2256;48.740;9.106;2023-08-12T09:31:21;2.93;;;2.67;;
4486;SDS011;2256;48.740;9.106;2023-08-12T09:33:49;2.60;;;2.40;;
4486;SDS011;2256;48.740;9.106;2023-08-12T09:36:16;3.87;;;2.57;;
4486;SDS011;2256;48.740;9.106;2023-08-12T09:38:43;2.90;;;2.70;;
4486;SDS011;2256;48.740;9.106;2023-08-12T09:41:12;4.67;;;2.47;;
4486;SDS011;2256;48.740;9.106;2023-08-12T09:43:40;2.90;;;2.60;;
4486;SDS011;2256;48.740;9.106;2023-08-12T09:46:10;2.60;;;2.40;;
4486;SDS011;2256;48.740;9.106;2023-08-12T09:48:38;2.93;;;2.70;;
4486;SDS011;2256;48.740;9.106;2023-08-12T09:51:05;2.67;;;2.47;;
4486;SDS011;2256;48.740;9.106;2023-08-12T09:53:32;4.23;;;2.53;;
4486;SDS011;2256;48.740;9.106;2023-08-12T09:55:59;5.30;;;2.93;;
4486;SDS011;2256;48.740;9.106;2023-08-12T09:58:33;3.07;;;2.77;;
4486;SDS011;2256;48.740;9.106;2023-08-12T10:01:02;3.47;;;2.87;;
4486;SDS011;2256;48.740;9.106;2023-08-12T10:03:29;6.53;;;3.60;;
4486;SDS011;2256;48.740;9.106;2023-08-12T10:05:58;3.03;;;2.73;;
4486;SDS011;2256;48.740;9.106;2023-08-12T10:08:26;4.27;;;3.20;;
4486;SDS011;2256;48.740;9.106;2023-08-12T10:10:53;8.53;;;3.20;;
4486;SDS011;2256;48.740;9.106;2023-08-12T10:13:20;3.03;;;2.73;;
4486;SDS011;2256;48.740;9.106;2023-08-12T10:15:49;2.97;;;2.63;;
4486;SDS011;2256;48.740;9.106;2023-08-12T10:18:16;3.03;;;2.73;;
4486;SDS011;2256;48.740;9.106;2023-08-12T10:20:44;3.90;;;3.17;;
4486;SDS011;2256;48.740;9.106;2023-08-12T10:23:15;6.00;;;2.90;;
4486;SDS011;2256;48.740;9.106;2023-08-12T10:25:43;3.50;;;3.07;;
4486;SDS011;2256;48.740;9.106;2023-08-12T10:28:10;3.93;;;3.27;;
4486;SDS011;2256;48.740;9.106;2023-08-12T10:30:37;3.33;;;3.03;;
4486;SDS011;2256;48.740;9.106;2023-08-12T10:33:08;2.70;;;2.50;;
4486;SDS011;2256;48.740;9.106;2023-08-12T10:35:42;4.60;;;3.20;;
4486;SDS011;2256;48.740;9.106;2023-08-12T10:38:10;3.40;;;3.00;;
4486;SDS011;2256;48.740;9.106;2023-08-12T10:40:39;7.13;;;3.90;;
4486;SDS011;2256;48.740;9.106;2023-08-12T10:43:06;3.80;;;3.40;;
4486;SDS011;2256;48.740;9.106;2023-08-12T10:45:42;3.20;;;3.00;;
4486;SDS011;2256;48.740;9.106;2023-08-12T10:48:22;5.60;;;3.67;;
4486;SDS011;2256;48.740;9.106;2023-08-12T10:50:51;4.20;;;3.20;;
4486;SDS011;2256;48.740;9.106;2023-08-12T10:53:20;6.40;;;2.90;;
4486;SDS011;2256;48.740;9.106;2023-08-12T10:55:54;3.00;;;2.80;;
4486;SDS011;2256;48.740;9.106;2023-08-12T10:58:27;3.10;;;2.80;;
4486;SDS011;2256;48.740;9.106;2023-08-12T11:00:54;3.27;;;2.90;;
4486;SDS011;2256;48.740;9.106;2023-08-12T11:03:23;3.10;;;2.80;;
4486;SDS011;2256;48.740;9.106;2023-08-12T11:05:50;3.17;;;2.87;;
4486;SDS011;2256;48.740;9.106;2023-08-12T11:08:23;4.70;;;3.40;;
4486;SDS011;2256;48.740;9.106;2023-08-12T11:10:50;6.47;;;3.30;;
4486;SDS011;2256;48.740;9.106;2023-08-12T11:13:19;3.43;;;3.00;;
4486;SDS011;2256;48.740;9.106;2023-08-12T11:15:47;2.70;;;2.50;;
4486;SDS011;2256;48.740;9.106;2023-08-12T11:18:15;8.00;;;3.10;;
4486;SDS011;2256;48.740;9.106;2023-08-12T11:20:52;3.53;;;2.73;;
4486;SDS011;2256;48.740;9.106;2023-08-12T11:23:19;3.47;;;3.17;;
4486;SDS011;2256;48.740;9.106;2023-08-12T11:25:47;5.80;;;3.23;;
4486;SDS011;2256;48.740;9.106;2023-08-12T11:28:15;3.30;;;2.67;;
4486;SDS011;2256;48.740;9.106;2023-08-12T11:30:44;3.70;;;3.00;;
4486;SDS011;2256;48.740;9.106;2023-08-12T11:33:11;4.40;;;3.20;;
4486;SDS011;2256;48.740;9.106;2023-08-12T11:35:38;3.80;;;3.20;;
4486;SDS011;2256;48.740;9.106;2023-08-12T11:38:07;8.80;;;3.03;;
4486;SDS011;2256;48.740;9.106;2023-08-12T11:40:35;3.00;;;2.70;;
4486;SDS011;2256;48.740;9.106;2023-08-12T11:43:01;5.40;;;3.47;;
4486;SDS011;2256;48.740;9.106;2023-08-12T11:45:29;4.97;;;3.60;;
4486;SDS011;2256;48.740;9.106;2023-08-12T11:47:56;4.60;;;3.57;;
4486;SDS011;2256;48.740;9.106;2023-08-12T11:50:23;8.03;;;2.83;;
4486;SDS011;2256;48.740;9.106;2023-08-12T11:52:53;3.47;;;2.80;;
4486;SDS011;2256;48.740;9.106;2023-08-12T11:55:23;4.80;;;2.70;;
4486;SDS011;2256;48.740;9.106;2023-08-12T11:57:51;2.50;;;2.30;;
4486;SDS011;2256;48.740;9.106;2023-08-12T12:00:18;6.40;;;3.27;;
4486;SDS011;2256;48.740;9.106;2023-08-12T12:02:46;3.60;;;3.00;;
4486;SDS011;2256;48.740;9.106;2023-08-12T12:05:14;2.80;;;2.60;;
4486;SDS011;2256;48.740;9.106;2023-08-12T12:07:42;3.30;;;3.00;;
4486;SDS011;2256;48.740;9.106;2023-08-12T12:10:12;3.93;;;3.43;;
4486;SDS011;2256;48.740;9.106;2023-08-12T12:12:43;5.40;;;4.70;;
4486;SDS011;2256;48.740;9.106;2023-08-12T12:15:12;6.07;;;4.20;;
4486;SDS011;2256;48.740;9.106;2023-08-12T12:17:40;5.60;;;3.80;;
4486;SDS011;2256;48.740;9.106;2023-08-12T12:20:07;7.70;;;4.73;;
4486;SDS011;2256;48.740;9.106;2023-08-12T12:22:36;7.37;;;4.93;;
4486;SDS011;2256;48.740;9.106;2023-08-12T12:25:07;7.60;;;5.00;;
4486;SDS011;2256;48.740;9.106;2023-08-12T12:27:36;7.13;;;4.87;;
4486;SDS011;2256;48.740;9.106;2023-08-12T12:30:07;11.70;;;5.13;;
4486;SDS011;2256;48.740;9.106;2023-08-12T12:32:34;12.40;;;5.80;;
4486;SDS011;2256;48.740;9.106;2023-08-12T12:35:01;8.50;;;5.77;;
4486;SDS011;2256;48.740;9.106;2023-08-12T12:37:29;10.73;;;5.63;;
4486;SDS011;2256;48.740;9.106;2023-08-12T12:39:56;6.73;;;5.77;;
4486;SDS011;2256;48.740;9.106;2023-08-12T12:42:23;7.87;;;5.03;;
4486;SDS011;2256;48.740;9.106;2023-08-12T12:44:50;10.60;;;5.53;;
4486;SDS011;2256;48.740;9.106;2023-08-12T12:47:18;9.73;;;4.90;;
4486;SDS011;2256;48.740;9.106;2023-08-12T12:49:46;8.93;;;5.90;;
4486;SDS011;2256;48.740;9.106;2023-08-12T12:52:12;11.27;;;6.40;;
4486;SDS011;2256;48.740;9.106;2023-08-12T12:54:39;8.77;;;5.97;;
4486;SDS011;2256;48.740;9.106;2023-08-12T12:57:06;10.00;;;6.13;;
4486;SDS011;2256;48.740;9.106;2023-08-12T12:59:33;12.00;;;6.00;;
4486;SDS011;2256;48.740;9.106;2023-08-12T13:02:00;17.10;;;7.13;;
4486;SDS011;2256;48.740;9.106;2023-08-12T13:04:28;9.83;;;6.80;;
4486;SDS011;2256;48.740;9.106;2023-08-12T13:06:55;12.93;;;6.50;;
4486;SDS011;2256;48.740;9.106;2023-08-12T13:09:22;10.50;;;6.20;;
4486;SDS011;2256;48.740;9.106;2023-08-12T13:11:49;12.93;;;6.23;;
4486;SDS011;2256;48.740;9.106;2023-08-12T13:14:16;10.40;;;5.93;;
4486;SDS011;2256;48.740;9.106;2023-08-12T13:16:46;12.00;;;6.20;;
4486;SDS011;2256;48.740;9.106;2023-08-12T13:19:12;19.53;;;6.57;;
4486;SDS011;2256;48.740;9.106;2023-08-12T13:21:41;9.40;;;6.43;;
4486;SDS011;2256;48.740;9.106;2023-08-12T13:24:07;8.53;;;5.47;;
4486;SDS011;2256;48.740;9.106;2023-08-12T13:26:34;10.63;;;6.00;;
4486;SDS011;2256;48.740;9.106;2023-08-12T13:29:01;11.30;;;6.13;;
4486;SDS011;2256;48.740;9.106;2023-08-12T13:31:29;8.90;;;6.30;;
4486;SDS011;2256;48.740;9.106;2023-08-12T13:33:55;14.30;;;7.30;;
4486;SDS011;2256;48.740;9.106;2023-08-12T13:36:22;10.80;;;6.73;;
4486;SDS011;2256;48.740;9.106;2023-08-12T13:38:50;10.27;;;6.37;;
4486;SDS011;2256;48.740;9.106;2023-08-12T13:41:17;10.63;;;7.30;;
4486;SDS011;2256;48.740;9.106;2023-08-12T13:43:44;9.23;;;6.30;;
4486;SDS011;2256;48.740;9.106;2023-08-12T13:46:11;9.47;;;6.73;;
4486;SDS011;2256;48.740;9.106;2023-08-12T13:48:38;13.20;;;6.40;;
4486;SDS011;2256;48.740;9.106;2023-08-12T13:51:04;6.53;;;4.97;;
4486;SDS011;2256;48.740;9.106;2023-08-12T13:53:31;6.33;;;5.03;;
4486;SDS011;2256;48.740;9.106;2023-08-12T13:55:59;6.90;;;5.20;;
4486;SDS011;2256;48.740;9.106;2023-08-12T13:58:27;6.67;;;4.20;;
4486;SDS011;2256;48.740;9.106;2023-08-12T14:00:54;9.10;;;3.77;;
4486;SDS011;2256;48.740;9.106;2023-08-12T14:03:20;5.93;;;3.50;;
4486;SDS011;2256;48.740;9.106;2023-08-12T14:05:47;7.10;;;3.63;;
4486;SDS011;2256;48.740;9.106;2023-08-12T14:08:14;3.50;;;2.87;;
4486;SDS011;2256;48.740;9.106;2023-08-12T14:10:41;5.17;;;3.33;;
4486;SDS011;2256;48.740;9.106;2023-08-12T14:13:09;5.13;;;3.20;;
4486;SDS011;2256;48.740;9.106;2023-08-12T14:15:36;6.07;;;3.27;;
4486;SDS011;2256;48.740;9.106;2023-08-12T14:18:03;4.00;;;3.13;;
4486;SDS011;2256;48.740;9.106;2023-08-12T14:20:30;7.00;;;2.67;;
4486;SDS011;2256;48.740;9.106;2023-08-12T14:22:57;4.07;;;2.93;;
4486;SDS011;2256;48.740;9.106;2023-08-12T14:25:24;3.03;;;2.50;;
4486;SDS011;2256;48.740;9.106;2023-08-12T14:27:51;3.87;;;2.87;;
4486;SDS011;2256;48.740;9.106;2023-08-12T14:30:19;3.77;;;2.90;;
4486;SDS011;2256;48.740;9.106;2023-08-12T14:32:51;3.97;;;2.60;;
4486;SDS011;2256;48.740;9.106;2023-08-12T14:35:19;3.83;;;2.37;;
4486;SDS011;2256;48.740;9.106;2023-08-12T14:37:46;3.97;;;2.67;;
4486;SDS011;2256;48.740;9.106;2023-08-12T14:40:13;4.70;;;2.90;;
4486;SDS011;2256;48.740;9.106;2023-08-12T14:42:40;7.73;;;3.53;;
4486;SDS011;2256;48.740;9.106;2023-08-12T14:45:10;3.47;;;2.90;;
4486;SDS011;2256;48.740;9.106;2023-08-12T14:47:41;4.73;;;2.40;;
4486;SDS011;2256;48.740;9.106;2023-08-12T14:50:08;4.70;;;3.00;;
4486;SDS011;2256;48.740;9.106;2023-08-12T14:52:35;3.33;;;2.33;;
4486;SDS011;2256;48.740;9.106;2023-08-12T14:55:03;3.37;;;2.50;;
4486;SDS011;2256;48.740;9.106;2023-08-12T14:57:31;3.03;;;2.40;;
4486;SDS011;2256;48.740;9.106;2023-08-12T14:59:58;2.40;;;2.20;;
4486;SDS011;2256;48.740;9.106;2023-08-12T15:02:25;3.97;;;2.63;;
4486;SDS011;2256;48.740;9.106;2023-08-12T15:04:53;3.10;;;2.70;;
4486;SDS011;2256;48.740;9.106;2023-08-12T15:07:20;2.53;;;2.30;;
4486;SDS011;2256;48.740;9.106;2023-08-12T15:09:47;3.80;;;2.70;;
4486;SDS011;2256;48.740;9.106;2023-08-12T15:12:14;2.80;;;2.50;;
4486;SDS011;2256;48.740;9.106;2023-08-12T15:14:41;2.83;;;2.00;;
4486;SDS011;2256;48.740;9.106;2023-08-12T15:17:07;2.53;;;2.27;;